Time;durP1;ratioP1;P1;durP2;ratioP2;P2;SDS_P1;SDS_P2;PMS_P1;PMS_P2;Temp;Humidity;BMP_temperature;BMP_pressure;BME280_temperature;BME280_humidity;BME280_pressure;Samples;Min_cycle;Max_cycle;Signal;HPM_P1;HPM_P2
2024/01/03 00:00:28;;;;;;;;;;;;;;;15.09;51.67;97926.44;4959193;28;6856;-78
2024/01/03 00:02:55;;;;;;;;;;;;;;;15.05;51.92;97929.94;4975115;28;6808;-77
2024/01/03 00:05:37;;;;;;;;;;;;;;;15.03;51.51;97922.22;4961417;28;7175;-78
2024/01/03 00:08:11;;;;;;;;;;;;;;;14.99;51.57;97923.13;4978685;28;7877;-78
2024/01/03 00:10:51;;;;;;;;;;;;;;;14.94;51.19;97943.78;4939632;28;6988;-78
2024/01/03 00:13:35;;;;;;;;;;;;;;;14.86;51.40;97938.69;4966840;28;7212;-78
2024/01/03 00:16:04;;;;;;;;;;;;;;;14.80;51.42;97936.19;4963500;28;6973;-78
2024/01/03 00:18:36;;;;;;;;;;;;;;;14.75;51.27;97914.72;4984687;28;7199;-76
2024/01/03 00:21:04;;;;;;;;;;;;;;;14.72;51.50;97940.50;4978868;28;8505;-77
2024/01/03 00:23:52;;;;;;;;;;;;;;;14.69;51.83;97943.13;4979415;28;6793;-77
2024/01/03 00:26:19;;;;;;;;;;;;;;;14.65;51.72;97962.03;4975233;28;7391;-75
2024/01/03 00:28:46;;;;;;;;;;;;;;;14.65;51.95;97957.75;5007299;28;7174;-74
2024/01/03 00:31:43;;;;;;;;;;;;;;;14.64;51.73;97966.38;5004876;28;7388;-75
2024/01/03 00:34:21;;;;;;;;;;;;;;;14.64;52.22;97962.91;5005024;28;7059;-76
2024/01/03 00:36:56;;;;;;;;;;;;;;;14.67;52.09;97981.81;5002830;28;6787;-76
2024/01/03 00:39:30;;;;;;;;;;;;;;;14.70;52.26;97980.94;4979360;28;6962;-75
2024/01/03 00:41:57;;;;;;;;;;;;;;;14.67;52.30;97981.81;4989122;28;7057;-75
2024/01/03 00:44:23;;;;;;;;;;;;;;;14.60;52.43;97999.91;5008079;28;7046;-75
2024/01/03 00:46:49;;;;;;;;;;;;;;;14.56;52.07;98005.06;4987196;28;6941;-74
2024/01/03 00:49:15;;;;;;;;;;;;;;;14.54;52.32;97996.50;5004314;28;6788;-74
2024/01/03 00:51:48;;;;;;;;;;;;;;;14.58;52.96;98012.78;5003843;28;6968;-74
2024/01/03 00:54:16;;;;;;;;;;;;;;;14.63;52.65;98005.03;4984681;28;7153;-75
2024/01/03 00:56:43;;;;;;;;;;;;;;;14.66;52.96;98016.19;5005810;28;6973;-75
2024/01/03 00:59:10;;;;;;;;;;;;;;;14.67;52.59;98011.88;4995682;28;6945;-75
2024/01/03 01:01:35;;;;;;;;;;;;;;;14.65;52.39;98003.28;4970149;28;6991;-75
2024/01/03 01:04:02;;;;;;;;;;;;;;;14.61;52.54;98017.91;4970941;28;6989;-75
2024/01/03 01:06:29;;;;;;;;;;;;;;;14.58;52.90;98029.13;4969584;28;7134;-75
2024/01/03 01:08:54;;;;;;;;;;;;;;;14.55;52.84;98023.97;4992521;28;7178;-75
2024/01/03 01:11:20;;;;;;;;;;;;;;;14.56;53.24;98020.53;5002238;28;7154;-75
2024/01/03 01:13:46;;;;;;;;;;;;;;;14.57;53.28;98027.38;4987734;28;6795;-75
2024/01/03 01:16:11;;;;;;;;;;;;;;;14.59;53.43;98022.25;4987823;28;7146;-75
2024/01/03 01:18:40;;;;;;;;;;;;;;;14.61;53.21;98012.75;4997820;28;6985;-75
2024/01/03 01:21:06;;;;;;;;;;;;;;;14.63;53.12;98023.94;4986702;28;7205;-75
2024/01/03 01:23:31;;;;;;;;;;;;;;;14.65;53.36;98021.34;4990815;28;6760;-75
2024/01/03 01:25:57;;;;;;;;;;;;;;;14.64;53.27;98023.06;5001430;28;6976;-75
2024/01/03 01:28:22;;;;;;;;;;;;;;;14.61;53.30;98028.22;4967231;28;6989;-75
2024/01/03 01:30:48;;;;;;;;;;;;;;;14.59;53.52;98032.53;5004087;28;7323;-74
2024/01/03 01:33:14;;;;;;;;;;;;;;;14.58;53.31;98046.31;4986468;28;6969;-75
2024/01/03 01:35:39;;;;;;;;;;;;;;;14.59;53.69;98040.28;4993123;28;6776;-75
2024/01/03 01:38:06;;;;;;;;;;;;;;;14.63;53.56;98056.59;4985696;28;6768;-75
2024/01/03 01:40:32;;;;;;;;;;;;;;;14.65;53.74;98045.41;4983899;28;6954;-75
2024/01/03 01:42:58;;;;;;;;;;;;;;;14.68;53.71;98050.53;4994846;28;7170;-75
2024/01/03 01:45:23;;;;;;;;;;;;;;;14.69;53.54;98041.94;4986228;28;6940;-74
2024/01/03 01:47:50;;;;;;;;;;;;;;;14.67;53.60;98055.69;4997591;28;7396;-74
2024/01/03 01:50:18;;;;;;;;;;;;;;;14.67;53.20;98053.09;4987181;28;6800;-74
2024/01/03 01:52:44;;;;;;;;;;;;;;;14.67;54.00;98056.56;5003318;28;7044;-75
2024/01/03 01:55:12;;;;;;;;;;;;;;;14.67;53.53;98059.13;5005036;28;6788;-75
2024/01/03 01:57:39;;;;;;;;;;;;;;;14.70;53.83;98066.00;5001156;28;6991;-75
2024/01/03 02:00:07;;;;;;;;;;;;;;;14.73;53.36;98063.44;4985988;28;7140;-77
2024/01/03 02:02:36;;;;;;;;;;;;;;;14.76;53.57;98057.41;4983561;28;7002;-77
2024/01/03 02:05:03;;;;;;;;;;;;;;;14.78;52.90;98066.84;4981242;28;6808;-75
2024/01/03 02:07:30;;;;;;;;;;;;;;;14.77;53.23;98059.13;4999703;28;6990;-75
2024/01/03 02:09:56;;;;;;;;;;;;;;;14.77;53.34;98065.09;4998252;28;6939;-75
2024/01/03 02:12:40;;;;;;;;;;;;;;;14.77;53.28;98070.25;4996949;28;6954;-75
2024/01/03 02:15:06;;;;;;;;;;;;;;;14.78;53.08;98069.44;4983247;28;6804;-75
2024/01/03 02:17:33;;;;;;;;;;;;;;;14.76;53.19;98060.81;4984323;28;7210;-75
2024/01/03 02:20:00;;;;;;;;;;;;;;;14.74;52.52;98059.13;4987221;28;6958;-75
2024/01/03 02:22:31;;;;;;;;;;;;;;;14.71;52.72;98075.44;5001480;28;6813;-75
2024/01/03 02:24:56;;;;;;;;;;;;;;;14.71;52.74;98065.97;5000809;28;6792;-75
2024/01/03 02:27:22;;;;;;;;;;;;;;;14.66;52.97;98090.06;4968236;28;7265;-75
2024/01/03 02:29:48;;;;;;;;;;;;;;;14.59;53.32;98078.94;4997597;28;7414;-75
2024/01/03 02:32:13;;;;;;;;;;;;;;;14.57;53.16;98073.78;4999024;28;6752;-75
2024/01/03 02:34:39;;;;;;;;;;;;;;;14.56;53.55;98082.38;4999880;28;6756;-74
2024/01/03 02:37:08;;;;;;;;;;;;;;;14.58;52.96;98069.50;4983993;28;6971;-76
2024/01/03 02:39:34;;;;;;;;;;;;;;;14.61;52.99;98078.94;4980975;28;6997;-75
2024/01/03 02:41:59;;;;;;;;;;;;;;;14.62;52.60;98088.38;4975186;28;6764;-75
2024/01/03 02:44:27;;;;;;;;;;;;;;;14.62;52.97;98088.38;4991936;28;7127;-73
2024/01/03 02:46:56;;;;;;;;;;;;;;;14.61;53.41;98094.41;4971758;28;7138;-72
2024/01/03 02:49:21;;;;;;;;;;;;;;;14.60;53.31;98097.84;4985057;28;6999;-74
2024/01/03 02:51:47;;;;;;;;;;;;;;;14.56;52.81;98097.84;4965947;28;7465;-73
2024/01/03 02:54:12;;;;;;;;;;;;;;;14.52;52.75;98079.84;4974236;28;7102;-74
2024/01/03 02:56:41;;;;;;;;;;;;;;;14.47;52.50;98103.06;4968268;28;6924;-75
2024/01/03 02:59:06;;;;;;;;;;;;;;;14.41;52.23;98097.94;4970441;28;6970;-75
2024/01/03 03:01:33;;;;;;;;;;;;;;;14.34;52.91;98102.28;4986823;28;6971;-73
2024/01/03 03:03:58;;;;;;;;;;;;;;;14.28;52.98;98110.03;4983406;28;7221;-72
2024/01/03 03:06:24;;;;;;;;;;;;;;;14.24;53.88;98104.03;4972753;28;7339;-74
2024/01/03 03:08:50;;;;;;;;;;;;;;;14.19;53.59;98103.16;4991089;28;6764;-73
2024/01/03 03:11:15;;;;;;;;;;;;;;;14.16;54.36;98100.59;4951448;28;7418;-74
2024/01/03 03:13:41;;;;;;;;;;;;;;;14.18;53.77;98111.75;4973726;28;7454;-73
2024/01/03 03:16:07;;;;;;;;;;;;;;;14.18;54.49;98109.19;4988797;28;7210;-74
2024/01/03 03:18:33;;;;;;;;;;;;;;;14.15;54.48;98101.47;4970191;28;6975;-73
2024/01/03 03:21:00;;;;;;;;;;;;;;;14.16;54.55;98093.75;4968974;28;7234;-73
2024/01/03 03:23:26;;;;;;;;;;;;;;;14.17;54.12;98099.75;4988625;28;7062;-74
2024/01/03 03:25:52;;;;;;;;;;;;;;;14.16;54.75;98108.34;4970585;28;7189;-74
2024/01/03 03:28:18;;;;;;;;;;;;;;;14.18;54.16;98101.44;4971150;28;6955;-73
2024/01/03 03:30:43;;;;;;;;;;;;;;;14.18;54.71;98101.44;4973806;28;6967;-73
2024/01/03 03:33:09;;;;;;;;;;;;;;;14.20;55.01;98116.91;4971735;28;6965;-73
2024/01/03 03:35:35;;;;;;;;;;;;;;;14.21;54.70;98108.31;4990259;28;6825;-75
2024/01/03 03:38:00;;;;;;;;;;;;;;;14.22;54.29;98108.31;4990202;28;6780;-73
2024/01/03 03:40:26;;;;;;;;;;;;;;;14.22;54.88;98113.47;4973164;28;6989;-74
2024/01/03 03:42:52;;;;;;;;;;;;;;;14.22;54.47;98118.63;4991532;28;7219;-73
2024/01/03 03:45:18;;;;;;;;;;;;;;;14.25;54.20;98113.47;4971478;28;6840;-73
2024/01/03 03:47:44;;;;;;;;;;;;;;;14.30;54.77;98116.88;4970149;28;6955;-73
2024/01/03 03:50:10;;;;;;;;;;;;;;;14.33;54.49;98118.56;4972330;28;6838;-74
2024/01/03 03:52:39;;;;;;;;;;;;;;;14.36;54.75;98099.66;4973260;28;7459;-73
2024/01/03 03:55:06;;;;;;;;;;;;;;;14.38;54.79;98108.25;4957401;28;6980;-75
2024/01/03 03:57:31;;;;;;;;;;;;;;;14.37;54.57;98106.53;4964303;28;6987;-75
2024/01/03 03:59:57;;;;;;;;;;;;;;;14.39;54.63;98121.13;4962984;28;6787;-76
2024/01/03 04:02:23;;;;;;;;;;;;;;;14.40;54.09;98109.13;4975787;28;8384;-75
2024/01/03 04:04:50;;;;;;;;;;;;;;;14.40;54.63;98098.81;4960419;28;7408;-76
2024/01/03 04:07:16;;;;;;;;;;;;;;;14.42;53.98;98110.81;4963707;28;7864;-76
2024/01/03 04:09:44;;;;;;;;;;;;;;;14.46;54.19;98090.19;4981256;28;6784;-76
2024/01/03 04:12:10;;;;;;;;;;;;;;;14.51;54.67;98103.91;4974316;28;6864;-76
2024/01/03 04:14:39;;;;;;;;;;;;;;;14.54;54.53;98115.06;4978340;28;7026;-76
2024/01/03 04:17:05;;;;;;;;;;;;;;;14.55;54.31;98106.44;4969832;28;6994;-76
2024/01/03 04:19:30;;;;;;;;;;;;;;;14.50;54.47;98121.09;4977275;28;6779;-76
2024/01/03 04:21:59;;;;;;;;;;;;;;;14.39;54.53;98104.81;4970770;28;6969;-76
2024/01/03 04:24:25;;;;;;;;;;;;;;;14.29;54.56;98124.63;4981533;28;6864;-76
2024/01/03 04:26:54;;;;;;;;;;;;;;;14.18;54.63;98132.38;4971360;28;7403;-76
2024/01/03 04:29:20;;;;;;;;;;;;;;;14.08;55.82;98125.53;4977292;28;6796;-76
2024/01/03 04:31:45;;;;;;;;;;;;;;;13.96;55.63;98132.44;4981469;28;8096;-77
2024/01/03 04:34:12;;;;;;;;;;;;;;;13.85;56.53;98137.59;4948391;28;7056;-75
2024/01/03 04:36:37;;;;;;;;;;;;;;;13.76;56.00;98129.88;4952313;28;7505;-77
2024/01/03 04:39:03;;;;;;;;;;;;;;;13.67;56.34;98129.91;4967488;28;6851;-76
2024/01/03 04:41:29;;;;;;;;;;;;;;;13.59;56.58;98145.34;4948173;28;7152;-75
2024/01/03 04:43:55;;;;;;;;;;;;;;;13.53;57.65;98137.66;4974580;28;7050;-76
2024/01/03 04:46:21;;;;;;;;;;;;;;;13.47;57.74;98138.47;4963292;28;7147;-75
2024/01/03 04:48:47;;;;;;;;;;;;;;;13.43;58.29;98141.88;4975894;28;6780;-75
2024/01/03 04:51:12;;;;;;;;;;;;;;;13.39;58.46;98135.03;4957084;28;6860;-75
2024/01/03 04:53:38;;;;;;;;;;;;;;;13.36;58.88;98138.47;4976185;28;6780;-76
2024/01/03 04:56:05;;;;;;;;;;;;;;;13.34;58.72;98122.16;4977772;28;7035;-76
2024/01/03 04:58:31;;;;;;;;;;;;;;;13.31;59.33;98112.72;4958457;28;6982;-76
2024/01/03 05:00:56;;;;;;;;;;;;;;;13.30;58.56;98125.59;4948079;28;7157;-75
2024/01/03 05:03:22;;;;;;;;;;;;;;;13.28;58.79;98107.59;4949121;28;7103;-75
2024/01/03 05:05:48;;;;;;;;;;;;;;;13.26;58.95;98109.28;4976715;28;6767;-75
2024/01/03 05:08:15;;;;;;;;;;;;;;;13.29;58.94;98113.59;4980707;28;6864;-75
2024/01/03 05:10:41;;;;;;;;;;;;;;;13.30;59.77;98111.03;4977729;28;7023;-75
2024/01/03 05:13:07;;;;;;;;;;;;;;;13.29;59.32;98109.31;4974855;28;7283;-76
2024/01/03 05:15:32;;;;;;;;;;;;;;;13.31;59.91;98111.84;4953491;28;6963;-76
2024/01/03 05:17:58;;;;;;;;;;;;;;;13.31;59.73;98117.88;4963156;28;8701;-76
2024/01/03 05:20:24;;;;;;;;;;;;;;;13.33;59.72;98115.31;4982008;28;6784;-76
2024/01/03 05:22:50;;;;;;;;;;;;;;;13.34;59.51;98106.72;4982961;28;6784;-76
2024/01/03 05:25:15;;;;;;;;;;;;;;;13.34;59.81;98110.16;4967114;28;7536;-75
2024/01/03 05:27:41;;;;;;;;;;;;;;;13.34;60.42;98101.59;4951448;28;6956;-75
2024/01/03 05:30:07;;;;;;;;;;;;;;;13.33;59.96;98095.56;4964770;28;7185;-76
2024/01/03 05:32:32;;;;;;;;;;;;;;;13.33;59.72;98090.44;4981598;28;7249;-76
2024/01/03 05:34:58;;;;;;;;;;;;;;;13.33;60.57;98090.44;4963664;28;7071;-75
2024/01/03 05:37:24;;;;;;;;;;;;;;;13.34;59.98;98092.13;4962678;28;7299;-76
2024/01/03 05:39:49;;;;;;;;;;;;;;;13.35;60.36;98095.59;4980336;28;7186;-76
2024/01/03 05:42:15;;;;;;;;;;;;;;;13.36;60.20;98099.00;4964713;28;6780;-76
2024/01/03 05:44:40;;;;;;;;;;;;;;;13.34;59.82;98099.03;4979778;28;6776;-75
2024/01/03 05:47:06;;;;;;;;;;;;;;;13.33;59.86;98105.03;4979277;28;7187;-76
2024/01/03 05:49:31;;;;;;;;;;;;;;;13.32;60.18;98101.56;4980970;28;6799;-75
2024/01/03 05:51:58;;;;;;;;;;;;;;;13.31;60.77;98087.00;4959752;28;6772;-75
2024/01/03 05:54:24;;;;;;;;;;;;;;;13.32;60.12;98081.00;4978206;28;7000;-75
2024/01/03 05:56:50;;;;;;;;;;;;;;;13.30;60.78;98080.16;4943516;28;6954;-76
2024/01/03 05:59:16;;;;;;;;;;;;;;;13.31;60.71;98086.13;4963988;28;8034;-76
2024/01/03 06:01:41;;;;;;;;;;;;;;;13.36;60.49;98092.16;4961543;28;6942;-76
2024/01/03 06:04:07;;;;;;;;;;;;;;;13.43;60.00;98072.41;4975344;28;7514;-76
2024/01/03 06:06:33;;;;;;;;;;;;;;;13.49;59.78;98079.31;4962338;28;6780;-76
2024/01/03 06:08:58;;;;;;;;;;;;;;;13.52;60.64;98084.44;4964160;28;7359;-77
2024/01/03 06:11:24;;;;;;;;;;;;;;;13.53;59.97;98060.44;4963201;28;7383;-76
2024/01/03 06:13:51;;;;;;;;;;;;;;;13.55;59.20;98076.72;4959741;28;6764;-76
2024/01/03 06:16:17;;;;;;;;;;;;;;;13.56;59.60;98068.16;4969340;28;7083;-74
2024/01/03 06:18:42;;;;;;;;;;;;;;;13.57;59.94;98088.75;4967005;28;6776;-74
2024/01/03 06:21:11;;;;;;;;;;;;;;;13.56;59.27;98081.84;4969111;28;6844;-73
2024/01/03 06:23:40;;;;;;;;;;;;;;;13.55;59.26;98087.88;4975539;28;7236;-73
2024/01/03 06:26:06;;;;;;;;;;;;;;;13.55;59.96;98080.16;4972069;28;7566;-73
2024/01/03 06:28:32;;;;;;;;;;;;;;;13.55;59.82;98079.31;4975590;28;7162;-74
2024/01/03 06:30:57;;;;;;;;;;;;;;;13.55;59.48;98085.28;4956931;28;7238;-73
2024/01/03 06:33:23;;;;;;;;;;;;;;;13.59;59.45;98081.00;4986174;28;6958;-73
2024/01/03 06:35:49;;;;;;;;;;;;;;;13.63;59.46;98082.72;4967558;28;7067;-73
2024/01/03 06:38:14;;;;;;;;;;;;;;;13.67;59.72;98076.69;4970611;28;7183;-72
2024/01/03 06:40:40;;;;;;;;;;;;;;;13.73;59.19;98068.09;4969171;28;6818;-73
2024/01/03 06:43:06;;;;;;;;;;;;;;;13.79;59.44;98064.66;4971609;28;6836;-74
2024/01/03 06:45:32;;;;;;;;;;;;;;;13.85;58.99;98064.66;4974258;28;6808;-74
2024/01/03 06:47:57;;;;;;;;;;;;;;;13.91;59.07;98062.06;4968658;28;6780;-73
2024/01/03 06:50:23;;;;;;;;;;;;;;;13.96;58.60;98065.47;4948427;28;7055;-73
2024/01/03 06:52:48;;;;;;;;;;;;;;;14.00;58.12;98058.59;4959769;28;7395;-72
2024/01/03 06:55:14;;;;;;;;;;;;;;;14.05;58.78;98063.72;4968502;28;7006;-73
2024/01/03 06:57:41;;;;;;;;;;;;;;;14.11;58.26;98068.88;4966199;28;7286;-73
2024/01/03 07:00:07;;;;;;;;;;;;;;;14.13;57.68;98049.94;4976944;28;7227;-74
2024/01/03 07:02:33;;;;;;;;;;;;;;;14.13;56.76;98056.84;4988461;28;6795;-73
2024/01/03 07:04:59;;;;;;;;;;;;;;;14.14;57.41;98063.69;4972320;28;6847;-74
2024/01/03 07:07:25;;;;;;;;;;;;;;;14.17;57.30;98063.69;4952965;28;7287;-73
2024/01/03 07:09:51;;;;;;;;;;;;;;;14.20;56.70;98043.06;4975117;28;6784;-75
2024/01/03 07:12:17;;;;;;;;;;;;;;;14.24;56.91;98055.06;4966697;28;7196;-75
2024/01/03 07:14:42;;;;;;;;;;;;;;;14.29;56.82;98079.09;4985715;28;6788;-73
2024/01/03 07:17:08;;;;;;;;;;;;;;;14.32;56.73;98070.47;4972444;28;7164;-75
2024/01/03 07:19:33;;;;;;;;;;;;;;;14.21;56.09;98078.28;4957343;28;7217;-74
2024/01/03 07:21:59;;;;;;;;;;;;;;;14.06;57.01;98099.78;4965626;28;7115;-74
2024/01/03 07:24:25;;;;;;;;;;;;;;;13.92;57.14;98104.09;4983715;28;6784;-73
2024/01/03 07:26:50;;;;;;;;;;;;;;;13.77;57.15;98118.75;4978053;28;6924;-77
2024/01/03 07:29:16;;;;;;;;;;;;;;;13.67;57.54;98112.75;4948647;28;6962;-77
2024/01/03 07:31:41;;;;;;;;;;;;;;;13.57;58.30;98129.91;4962523;28;7307;-76
2024/01/03 07:34:07;;;;;;;;;;;;;;;13.50;58.18;98137.63;4955255;28;7873;-77
2024/01/03 07:36:32;;;;;;;;;;;;;;;13.44;58.77;98138.44;4958910;28;6772;-76
2024/01/03 07:39:00;;;;;;;;;;;;;;;13.42;58.89;98127.31;4965661;28;8251;-77
2024/01/03 07:41:26;;;;;;;;;;;;;;;13.42;58.64;98142.75;4973069;28;7269;-77
2024/01/03 07:43:51;;;;;;;;;;;;;;;13.41;57.87;98139.31;4960172;28;7975;-77
2024/01/03 07:46:18;;;;;;;;;;;;;;;13.43;58.69;98142.75;4959476;28;6772;-77
2024/01/03 07:48:44;;;;;;;;;;;;;;;13.50;58.04;98158.22;4975882;28;7080;-77
2024/01/03 07:51:10;;;;;;;;;;;;;;;13.54;58.09;98150.50;4955096;28;6780;-77
2024/01/03 07:53:37;;;;;;;;;;;;;;;13.59;58.31;98168.50;4970818;28;7278;-77
2024/01/03 07:56:07;;;;;;;;;;;;;;;13.60;58.48;98170.22;4965685;28;6989;-78
2024/01/03 07:58:33;;;;;;;;;;;;;;;13.64;58.42;98179.69;4974500;28;7219;-77
2024/01/03 08:00:59;;;;;;;;;;;;;;;13.67;57.61;98182.22;4947852;28;6990;-78
2024/01/03 08:03:24;;;;;;;;;;;;;;;13.72;57.86;98177.09;4974409;28;6784;-77
2024/01/03 08:05:50;;;;;;;;;;;;;;;13.75;57.89;98183.09;4963020;28;6779;-78
2024/01/03 08:08:15;;;;;;;;;;;;;;;13.78;57.46;98183.94;4962015;28;7101;-77
2024/01/03 08:10:41;;;;;;;;;;;;;;;13.79;57.36;98181.38;4982331;28;6792;-77
2024/01/03 08:13:06;;;;;;;;;;;;;;;13.80;56.81;98184.78;4960130;28;7254;-77
2024/01/03 08:15:33;;;;;;;;;;;;;;;13.81;57.05;98192.53;4969279;28;7933;-78
2024/01/03 08:17:58;;;;;;;;;;;;;;;13.81;57.00;98182.22;4965859;28;7222;-78
2024/01/03 08:20:24;;;;;;;;;;;;;;;13.85;56.58;98196.81;4976827;28;6966;-78
2024/01/03 08:22:51;;;;;;;;;;;;;;;13.87;57.02;98202.84;4979288;28;6971;-77
2024/01/03 08:25:17;;;;;;;;;;;;;;;13.89;56.70;98197.66;4961898;28;7087;-78
2024/01/03 08:27:43;;;;;;;;;;;;;;;13.88;56.25;98186.53;4961592;28;7098;-78
2024/01/03 08:30:09;;;;;;;;;;;;;;;13.87;55.70;98201.97;4960912;28;6844;-77
2024/01/03 08:32:36;;;;;;;;;;;;;;;13.87;56.04;98201.97;4974258;28;7338;-78
2024/01/03 08:35:03;;;;;;;;;;;;;;;13.91;56.70;98208.84;4968809;28;8921;-75
2024/01/03 08:37:30;;;;;;;;;;;;;;;13.95;55.89;98207.09;4989819;28;7146;-75
2024/01/03 08:39:56;;;;;;;;;;;;;;;14.02;56.17;98208.81;4993872;28;6816;-75
2024/01/03 08:42:25;;;;;;;;;;;;;;;14.08;56.25;98213.09;4988069;28;6920;-75
2024/01/03 08:44:51;;;;;;;;;;;;;;;14.10;56.11;98224.25;5009508;28;6931;-75
2024/01/03 08:47:21;;;;;;;;;;;;;;;14.15;55.67;98219.97;5015888;23;6953;-85
2024/01/03 08:49:48;;;;;;;;;;;;;;;14.12;55.52;98212.25;4989963;28;7066;-86
2024/01/03 08:52:14;;;;;;;;;;;;;;;14.13;55.31;98214.81;4962586;28;6831;-85
2024/01/03 08:54:41;;;;;;;;;;;;;;;14.11;55.28;98215.69;4979206;28;6803;-85
2024/01/03 08:57:10;;;;;;;;;;;;;;;14.05;56.24;98210.53;5152740;23;6920;-75
2024/01/03 08:59:36;;;;;;;;;;;;;;;14.01;55.57;98227.72;4976791;28;7229;-75
2024/01/03 09:02:03;;;;;;;;;;;;;;;13.98;56.13;98223.41;4960623;28;6939;-74
2024/01/03 09:04:34;;;;;;;;;;;;;;;13.95;56.17;98220.84;5006066;23;6820;-86
2024/01/03 09:07:00;;;;;;;;;;;;;;;13.97;55.99;98223.44;4969833;28;6988;-83
2024/01/03 09:09:25;;;;;;;;;;;;;;;13.99;56.55;98235.44;4964657;28;6947;-85
2024/01/03 09:11:58;;;;;;;;;;;;;;;14.07;56.53;98229.41;4999660;28;8443;-85
2024/01/03 09:14:23;;;;;;;;;;;;;;;14.15;56.81;98236.28;4986844;28;7239;-85
2024/01/03 09:16:50;;;;;;;;;;;;;;;14.26;56.30;98246.56;5004788;23;6979;-86
2024/01/03 09:19:17;;;;;;;;;;;;;;;14.32;56.48;98222.50;4980252;28;7582;-83
2024/01/03 09:21:46;;;;;;;;;;;;;;;14.39;55.90;98233.66;4976671;28;8383;-83
2024/01/03 09:24:12;;;;;;;;;;;;;;;14.43;55.82;98243.94;4989451;28;6842;-83
2024/01/03 09:26:38;;;;;;;;;;;;;;;14.50;55.81;98229.34;4980545;28;6945;-83
2024/01/03 09:29:05;;;;;;;;;;;;;;;14.54;56.06;98238.78;4995978;28;6973;-83
2024/01/03 09:31:33;;;;;;;;;;;;;;;14.57;55.58;98251.66;4998721;28;6804;-83
2024/01/03 09:33:59;;;;;;;;;;;;;;;14.50;55.27;98247.41;4975442;28;7184;-84
2024/01/03 09:36:25;;;;;;;;;;;;;;;14.36;55.58;98243.97;5011508;28;7100;-84
2024/01/03 09:38:50;;;;;;;;;;;;;;;14.21;55.82;98256.03;4985281;28;6924;-84
2024/01/03 09:41:22;;;;;;;;;;;;;;;14.06;56.63;98256.03;4968106;28;8380;-83
2024/01/03 09:43:50;;;;;;;;;;;;;;;13.95;56.03;98262.06;5012226;28;7410;-83
2024/01/03 09:46:16;;;;;;;;;;;;;;;13.90;57.07;98268.91;4994233;28;8332;-83
2024/01/03 09:48:44;;;;;;;;;;;;;;;13.80;56.54;98249.16;5011875;28;7231;-83
2024/01/03 09:51:10;;;;;;;;;;;;;;;13.78;57.23;98264.63;4995275;28;6955;-83
2024/01/03 09:53:37;;;;;;;;;;;;;;;13.75;57.37;98260.31;4993997;28;6764;-83
2024/01/03 09:56:03;;;;;;;;;;;;;;;13.77;58.05;98265.50;4975288;28;6796;-83
2024/01/03 09:58:28;;;;;;;;;;;;;;;13.82;57.78;98268.06;4985439;28;6796;-83
2024/01/03 10:00:54;;;;;;;;;;;;;;;13.90;58.07;98274.06;4989119;28;7010;-84
2024/01/03 10:03:20;;;;;;;;;;;;;;;13.98;58.04;98272.34;4994414;28;6968;-83
2024/01/03 10:05:49;;;;;;;;;;;;;;;14.09;57.61;98285.22;4966267;28;7086;-84
2024/01/03 10:08:17;;;;;;;;;;;;;;;14.23;57.90;98256.88;4973488;28;7257;-83
2024/01/03 10:10:45;;;;;;;;;;;;;;;14.38;57.52;98280.91;4989502;28;7001;-84
2024/01/03 10:13:19;;;;;;;;;;;;;;;14.51;56.78;98280.03;4968288;28;6792;-84
2024/01/03 10:15:48;;;;;;;;;;;;;;;14.62;56.76;98277.41;4964109;28;7032;-84
2024/01/03 10:18:18;;;;;;;;;;;;;;;14.74;56.84;98275.72;4986759;28;7032;-82
2024/01/03 10:20:45;;;;;;;;;;;;;;;14.81;56.71;98275.69;4975175;28;7068;-83
2024/01/03 10:23:26;;;;;;;;;;;;;;;14.89;56.52;98282.56;4964462;28;6795;-84
2024/01/03 10:25:58;;;;;;;;;;;;;;;14.94;55.87;98268.78;4958467;28;7063;-84
2024/01/03 10:28:25;;;;;;;;;;;;;;;14.97;55.25;98281.66;4933997;28;8922;-85
2024/01/03 10:30:53;;;;;;;;;;;;;;;15.02;54.90;98281.63;4941734;28;7007;-84
2024/01/03 10:33:20;;;;;;;;;;;;;;;15.05;54.73;98289.34;4939683;28;7079;-84
2024/01/03 10:35:55;;;;;;;;;;;;;;;15.08;55.06;98291.94;4945634;28;6772;-84
2024/01/03 10:38:24;;;;;;;;;;;;;;;15.17;54.69;98266.97;4956310;28;7005;-84
2024/01/03 10:40:51;;;;;;;;;;;;;;;15.34;54.61;98267.69;4963847;28;7078;-84
2024/01/03 10:43:17;;;;;;;;;;;;;;;15.59;54.64;98283.06;4947584;28;6967;-84
2024/01/03 10:45:43;;;;;;;;;;;;;;;15.79;54.38;98282.06;4951877;28;7163;-84
2024/01/03 10:48:08;;;;;;;;;;;;;;;15.91;53.68;98287.16;4948388;28;6784;-84
2024/01/03 10:50:34;;;;;;;;;;;;;;;16.05;53.79;98275.88;4945323;28;6935;-83
2024/01/03 10:53:09;;;;;;;;;;;;;;;16.20;53.19;98288.66;4960630;28;8447;-83
2024/01/03 10:55:40;;;;;;;;;;;;;;;16.24;52.27;98282.59;4948379;28;7121;-84
2024/01/03 10:58:20;;;;;;;;;;;;;;;16.20;51.72;98277.47;4963729;28;7181;-84
2024/01/03 11:01:16;;;;;;;;;;;;;;;16.07;51.58;98285.31;4979683;28;8449;-83
2024/01/03 11:04:16;;;;;;;;;;;;;;;15.71;52.10;98287.28;4950154;28;8511;-83
2024/01/03 11:07:17;;;;;;;;;;;;;;;15.34;53.17;98288.34;4950114;28;8464;-84
2024/01/03 11:09:44;;;;;;;;;;;;;;;15.08;53.50;98279.03;4945674;28;6812;-83
2024/01/03 11:12:21;;;;;;;;;;;;;;;14.95;54.76;98279.94;4971016;28;8804;-84
2024/01/03 11:14:53;;;;;;;;;;;;;;;14.91;54.70;98280.81;4965745;28;6808;-84
2024/01/03 11:17:35;;;;;;;;;;;;;;;15.03;55.49;98279.91;4945927;28;6983;-84
2024/01/03 11:20:08;;;;;;;;;;;;;;;15.21;54.54;98282.41;4973578;28;6671;-84
2024/01/03 11:22:57;;;;;;;;;;;;;;;15.30;54.51;98271.19;4962672;28;8472;-84
2024/01/03 11:25:51;;;;;;;;;;;;;;;15.30;54.37;98273.75;4981980;28;6994;-84
2024/01/03 11:28:35;;;;;;;;;;;;;;;15.28;54.75;98260.00;4950104;28;7189;-84
2024/01/03 11:31:01;;;;;;;;;;;;;;;15.26;53.82;98266.91;4930138;28;8524;-83
2024/01/03 11:33:30;;;;;;;;;;;;;;;15.17;54.14;98264.38;4944628;28;8645;-84
2024/01/03 11:35:56;;;;;;;;;;;;;;;15.05;54.31;98270.44;4929439;28;6994;-84
2024/01/03 11:38:42;;;;;;;;;;;;;;;15.09;54.62;98257.53;4964680;28;7223;-83
2024/01/03 11:41:09;;;;;;;;;;;;;;;15.18;54.61;98255.78;4963688;28;6983;-85
2024/01/03 11:46:12;;;;;;;;;;;;;;;15.81;54.27;98245.03;4957561;28;6926;-77
2024/01/03 11:48:39;;;;;;;;;;;;;;;16.18;53.64;98241.31;4955957;28;6995;-77
2024/01/03 11:51:25;;;;;;;;;;;;;;;16.38;52.52;98232.50;4945489;28;7050;-78
2024/01/03 11:53:52;;;;;;;;;;;;;;;16.38;52.23;98228.19;4955789;28;7325;-77
2024/01/03 11:56:33;;;;;;;;;;;;;;;16.33;52.36;98219.63;4951652;28;7407;-77
2024/01/03 11:59:02;;;;;;;;;;;;;;;16.33;52.23;98218.78;4957554;28;6788;-77
2024/01/03 12:01:28;;;;;;;;;;;;;;;16.33;52.05;98213.59;4954385;28;6879;-77
2024/01/03 12:04:11;;;;;;;;;;;;;;;16.27;51.88;98213.66;4946335;28;6945;-77
2024/01/03 12:06:38;;;;;;;;;;;;;;;16.18;51.58;98218.03;4958494;28;7179;-76
2024/01/03 12:09:04;;;;;;;;;;;;;;;16.11;51.71;98211.22;4988782;28;7264;-76
2024/01/03 12:11:33;;;;;;;;;;;;;;;16.03;51.39;98194.91;4969797;28;7035;-76
2024/01/03 12:13:59;;;;;;;;;;;;;;;15.87;51.68;98199.34;4963319;28;6946;-76
2024/01/03 12:16:24;;;;;;;;;;;;;;;15.67;51.96;98202.94;4972359;28;6951;-76
2024/01/03 12:18:53;;;;;;;;;;;;;;;15.51;52.24;98202.22;4980164;28;8409;-75
2024/01/03 12:21:19;;;;;;;;;;;;;;;15.40;53.21;98192.81;4984264;23;7183;-82
2024/01/03 12:23:59;;;;;;;;;;;;;;;15.34;52.89;98203.19;4975534;28;8405;-82
2024/01/03 12:26:26;;;;;;;;;;;;;;;15.24;52.95;98204.09;4965608;28;8316;-82
2024/01/03 12:29:03;;;;;;;;;;;;;;;15.12;53.29;98216.22;4982174;28;6792;-82
2024/01/03 12:31:29;;;;;;;;;;;;;;;15.03;53.77;98205.13;4968549;28;7106;-82
2024/01/03 12:34:08;;;;;;;;;;;;;;;14.92;53.85;98197.41;4951454;28;8969;-82
2024/01/03 12:36:37;;;;;;;;;;;;;;;14.91;54.75;98199.13;4969209;28;8566;-82
2024/01/03 12:39:03;;;;;;;;;;;;;;;14.98;54.60;98193.09;4965928;28;7610;-82
2024/01/03 12:41:29;;;;;;;;;;;;;;;15.06;54.77;98190.44;4936952;28;8649;-82
2024/01/03 12:43:57;;;;;;;;;;;;;;;15.10;54.08;98179.25;4966591;28;8401;-85
2024/01/03 12:46:23;;;;;;;;;;;;;;;15.20;54.59;98180.03;4964981;28;8528;-83
2024/01/03 12:48:51;;;;;;;;;;;;;;;15.30;54.22;98180.84;4965104;28;8616;-82
2024/01/03 12:51:17;;;;;;;;;;;;;;;15.40;54.02;98171.31;4971271;28;8461;-82
2024/01/03 12:53:43;;;;;;;;;;;;;;;15.49;53.23;98170.41;4977347;28;8391;-82
2024/01/03 12:56:08;;;;;;;;;;;;;;;15.58;53.46;98170.34;4950975;28;8602;-82
2024/01/03 12:58:41;;;;;;;;;;;;;;;15.67;52.96;98170.25;4957190;28;7533;-82
2024/01/03 13:01:07;;;;;;;;;;;;;;;15.77;52.91;98162.44;4978226;28;7176;-82
2024/01/03 13:03:35;;;;;;;;;;;;;;;15.81;52.34;98156.34;4979771;28;6772;-82